Aviation Digital Data Service (ADDS)

Output produced by METARs form (1240 UTC 17 September 2019)
found at http://www.aviationweather.gov/metar/data/
 
Forecast for: ZBAD
Text: TAF ZBAD 170903Z 1712/1812 36004MPS CAVOK TX25/1807Z TN14/1721Z
Forecast period: 1200 UTC 17 September 2019 to 1200 UTC 18 September 2019
Forecast type: FROM: standard forecast or significant change
Winds: from the N (360 degrees) at 9 MPH (8 knots; 4.1 m/s)
Visibility: 6 or more miles 10+ km)
Ceiling: unknown
Clouds: missing
Weather: no significant weather forecast for this period